createdAt,value
2019-02-15T00:01:08.177Z,100346.36
2019-02-15T00:03:34.719Z,100345.14
2019-02-15T00:06:01.422Z,100347.85
2019-02-15T00:08:28.039Z,100344.55
2019-02-15T00:10:54.527Z,100347.92
2019-02-15T00:13:22.129Z,100343.50
2019-02-15T00:15:48.615Z,100341.67
2019-02-15T00:18:42.054Z,100340.22
2019-02-15T00:21:19.923Z,100342.02
2019-02-15T00:23:46.374Z,100334.19
2019-02-15T00:26:13.102Z,100332.31
2019-02-15T00:28:39.778Z,100338.73
2019-02-15T00:31:08.177Z,100331.09
2019-02-15T00:33:34.938Z,100337.09
2019-02-15T00:36:01.491Z,100334.02
2019-02-15T00:38:28.040Z,100334.83
2019-02-15T00:40:54.582Z,100335.58
2019-02-15T00:43:22.537Z,100336.54
2019-02-15T00:46:00.819Z,100337.56
2019-02-15T00:48:27.401Z,100338.27
2019-02-15T00:51:03.425Z,100341.27
2019-02-15T00:53:40.144Z,100336.56
2019-02-15T00:56:23.640Z,100342.75
2019-02-15T00:59:09.840Z,100343.76
2019-02-15T01:01:51.752Z,100338.45
2019-02-15T01:04:28.274Z,100341.64
2019-02-15T01:07:20.299Z,100346.76
2019-02-15T01:09:51.864Z,100345.67
2019-02-15T01:12:44.312Z,100340.84
2019-02-15T01:15:10.875Z,100344.25
2019-02-15T01:17:37.376Z,100347.27
2019-02-15T01:20:04.418Z,100348.09
2019-02-15T01:22:30.980Z,100343.69
2019-02-15T01:24:58.790Z,100337.41
2019-02-15T01:27:47.629Z,100335.92
2019-02-15T01:30:31.149Z,100337.62
2019-02-15T01:33:17.359Z,100338.56
2019-02-15T01:36:13.328Z,100335.40
2019-02-15T01:38:58.022Z,100338.33
2019-02-15T01:41:30.492Z,100337.86
2019-02-15T01:44:07.899Z,100327.59
2019-02-15T01:46:53.166Z,100332.70
2019-02-15T01:49:19.730Z,100333.04
2019-02-15T01:51:46.501Z,100338.80
2019-02-15T01:54:13.453Z,100342.62
2019-02-15T01:56:40.009Z,100339.97
2019-02-15T01:59:06.529Z,100341.78
2019-02-15T02:01:33.037Z,100335.77
2019-02-15T02:03:59.522Z,100342.80
2019-02-15T02:06:26.064Z,100338.14
2019-02-15T02:08:52.558Z,100340.95
2019-02-15T02:11:19.045Z,100337.58
2019-02-15T02:13:49.767Z,100341.55
2019-02-15T02:16:14.067Z,100336.42
2019-02-15T02:18:40.534Z,100337.55
2019-02-15T02:21:07.073Z,100336.23
2019-02-15T02:23:33.578Z,100335.86
2019-02-15T02:26:00.046Z,100331.78
2019-02-15T02:28:26.551Z,100329.48
2019-02-15T02:30:53.028Z,100322.14
2019-02-15T02:33:21.649Z,100325.89
2019-02-15T02:35:48.161Z,100321.27
2019-02-15T02:38:14.690Z,100313.86
2019-02-15T02:40:41.161Z,100320.70
2019-02-15T02:43:07.699Z,100322.02
2019-02-15T02:45:34.261Z,100317.97
2019-02-15T02:48:00.776Z,100319.06
2019-02-15T02:50:27.406Z,100320.18
2019-02-15T02:52:54.063Z,100311.34
2019-02-15T02:55:20.905Z,100315.63
2019-02-15T02:57:47.707Z,100313.72
2019-02-15T03:00:14.250Z,100313.93
2019-02-15T03:02:40.712Z,100308.42
2019-02-15T03:05:07.354Z,100307.64
2019-02-15T03:07:33.912Z,100313.70
2019-02-15T03:10:00.818Z,100312.44
2019-02-15T03:12:27.284Z,100313.43
2019-02-15T03:14:53.832Z,100311.84
2019-02-15T03:17:20.310Z,100308.44
2019-02-15T03:19:47.093Z,100318.69
2019-02-15T03:22:13.593Z,100317.49
2019-02-15T03:24:40.128Z,100324.89
2019-02-15T03:27:06.774Z,100320.71
2019-02-15T03:29:33.286Z,100332.42
2019-02-15T03:32:00.029Z,100331.95
2019-02-15T03:34:27.581Z,100339.41
2019-02-15T03:37:06.435Z,100338.70
2019-02-15T03:39:45.151Z,100338.55
2019-02-15T03:42:13.094Z,100334.09
2019-02-15T03:44:39.624Z,100337.58
2019-02-15T03:47:06.173Z,100334.59
2019-02-15T03:49:32.663Z,100335.11
2019-02-15T03:51:59.414Z,100327.50
2019-02-15T03:54:25.899Z,100330.28
2019-02-15T03:56:52.460Z,100321.09
2019-02-15T03:59:19.207Z,100318.20
2019-02-15T04:01:45.713Z,100312.29
2019-02-15T04:04:12.637Z,100307.02
2019-02-15T04:06:39.173Z,100298.98
2019-02-15T04:09:05.774Z,100296.50
2019-02-15T04:11:32.544Z,100297.10
2019-02-15T04:13:59.035Z,100292.86
2019-02-15T04:16:25.633Z,100293.27
2019-02-15T04:18:52.116Z,100286.80
2019-02-15T04:21:18.673Z,100280.30
2019-02-15T04:23:45.229Z,100271.89
2019-02-15T04:26:11.793Z,100273.78
2019-02-15T04:28:38.338Z,100273.72
2019-02-15T04:31:04.844Z,100274.55
2019-02-15T04:33:31.389Z,100269.86
2019-02-15T04:35:57.931Z,100268.55
2019-02-15T04:38:25.405Z,100273.36
2019-02-15T04:40:52.392Z,100278.63
2019-02-15T04:43:19.270Z,100280.15
2019-02-15T04:45:45.767Z,100284.05
2019-02-15T04:48:12.717Z,100287.11
2019-02-15T04:50:39.191Z,100284.78
2019-02-15T04:53:05.704Z,100287.48
2019-02-15T04:55:32.453Z,100288.44
2019-02-15T04:57:58.946Z,100289.89
2019-02-15T05:00:25.520Z,100288.00
2019-02-15T05:02:52.041Z,100298.41
2019-02-15T05:05:18.532Z,100296.56
2019-02-15T05:07:44.980Z,100287.02
2019-02-15T05:10:11.484Z,100290.16
2019-02-15T05:12:37.972Z,100292.48
2019-02-15T05:15:04.573Z,100292.13
2019-02-15T05:17:31.020Z,100298.34
2019-02-15T05:19:57.502Z,100300.24
2019-02-15T05:22:23.989Z,100299.19
2019-02-15T05:24:50.514Z,100305.09
2019-02-15T05:27:16.995Z,100304.28
2019-02-15T05:29:43.445Z,100302.52
2019-02-15T05:32:09.967Z,100294.36
2019-02-15T05:34:36.561Z,100295.16
2019-02-15T05:37:03.135Z,100290.27
2019-02-15T05:39:29.646Z,100286.22
2019-02-15T05:41:56.575Z,100284.18
2019-02-15T05:44:23.092Z,100286.38
2019-02-15T05:46:49.959Z,100282.63
2019-02-15T05:49:16.394Z,100286.33
2019-02-15T05:51:42.898Z,100286.33
2019-02-15T05:54:09.430Z,100292.05
2019-02-15T05:56:35.981Z,100285.91
2019-02-15T05:59:02.435Z,100287.34
2019-02-15T06:01:29.531Z,100288.05
2019-02-15T06:03:56.046Z,100285.86
2019-02-15T06:06:22.549Z,100279.91
2019-02-15T06:08:50.341Z,100281.96
2019-02-15T06:11:16.832Z,100283.65
2019-02-15T06:13:43.645Z,100280.64
2019-02-15T06:16:10.106Z,100283.19
2019-02-15T06:18:36.623Z,100287.92
2019-02-15T06:21:03.135Z,100287.75
2019-02-15T06:23:29.670Z,100290.03
2019-02-15T06:25:56.150Z,100289.28
2019-02-15T06:28:22.703Z,100294.82
2019-02-15T06:30:49.188Z,100301.52
2019-02-15T06:33:15.965Z,100297.95
2019-02-15T06:35:42.512Z,100305.66
2019-02-15T06:38:09.221Z,100301.01
2019-02-15T06:40:36.088Z,100312.33
2019-02-15T06:43:03.119Z,100308.89
2019-02-15T06:45:29.705Z,100314.60
2019-02-15T06:47:56.246Z,100311.41
2019-02-15T06:50:22.935Z,100317.65
2019-02-15T06:52:49.642Z,100320.34
2019-02-15T06:55:16.163Z,100321.00
2019-02-15T06:57:42.800Z,100325.73
2019-02-15T07:00:42.041Z,100316.94
2019-02-15T07:03:31.623Z,100318.63
2019-02-15T07:05:58.543Z,100318.84
2019-02-15T07:08:25.071Z,100324.41
2019-02-15T07:10:52.203Z,100326.17
2019-02-15T07:13:20.860Z,100324.13
2019-02-15T07:15:47.538Z,100326.59
2019-02-15T07:18:14.284Z,100329.63
2019-02-15T07:20:41.017Z,100327.80
2019-02-15T07:23:07.649Z,100329.77
2019-02-15T07:25:34.190Z,100330.78
2019-02-15T07:28:00.904Z,100329.38
2019-02-15T07:30:27.855Z,100334.41
2019-02-15T07:32:54.459Z,100333.46
2019-02-15T07:35:21.273Z,100333.66
2019-02-15T07:37:48.011Z,100327.84
2019-02-15T07:40:14.593Z,100332.08
2019-02-15T07:42:41.148Z,100327.45
2019-02-15T07:45:08.245Z,100321.22
2019-02-15T07:47:35.377Z,100317.75
2019-02-15T07:50:02.020Z,100319.78
2019-02-15T07:52:35.735Z,100318.61
2019-02-15T07:55:03.046Z,100311.91
2019-02-15T07:57:30.740Z,100307.52
2019-02-15T07:59:57.987Z,100304.83
2019-02-15T08:02:29.000Z,100313.55
2019-02-15T08:04:56.877Z,100305.20
2019-02-15T08:07:23.547Z,100310.91
2019-02-15T08:09:50.100Z,100312.47
2019-02-15T08:12:16.872Z,100307.64
2019-02-15T08:14:43.442Z,100309.25
2019-02-15T08:17:10.001Z,100312.27
2019-02-15T08:19:36.573Z,100311.09
2019-02-15T08:22:03.662Z,100309.19
2019-02-15T08:24:30.416Z,100309.45
2019-02-15T08:26:57.338Z,100302.93
2019-02-15T08:29:24.691Z,100304.86
2019-02-15T08:31:53.525Z,100300.56
2019-02-15T08:34:20.497Z,100299.52
2019-02-15T08:36:47.066Z,100301.84
2019-02-15T08:39:14.038Z,100304.26
2019-02-15T08:41:41.101Z,100304.97
2019-02-15T08:44:07.853Z,100302.13
2019-02-15T08:46:34.449Z,100301.95
2019-02-15T08:49:01.471Z,100301.67
2019-02-15T08:51:29.157Z,100303.30
2019-02-15T08:53:55.809Z,100292.23
2019-02-15T08:56:22.485Z,100303.50
2019-02-15T08:58:49.357Z,100300.92
2019-02-15T09:01:16.006Z,100304.98
2019-02-15T09:03:42.773Z,100302.00
2019-02-15T09:06:09.958Z,100305.13
2019-02-15T09:08:37.636Z,100295.28
2019-02-15T09:11:04.412Z,100302.64
2019-02-15T09:13:31.379Z,100302.02
2019-02-15T09:15:58.981Z,100302.36
2019-02-15T09:18:25.517Z,100304.31
2019-02-15T09:20:52.798Z,100301.73
2019-02-15T09:23:19.389Z,100296.23
2019-02-15T09:25:46.099Z,100289.84
2019-02-15T09:28:26.551Z,100288.16
2019-02-15T09:30:54.224Z,100282.00
2019-02-15T09:33:20.857Z,100290.34
2019-02-15T09:35:47.414Z,100276.38
2019-02-15T09:38:14.006Z,100278.13
2019-02-15T09:40:40.594Z,100273.67
2019-02-15T09:43:07.197Z,100275.90
2019-02-15T09:45:33.787Z,100273.12
2019-02-15T09:48:00.776Z,100272.24
2019-02-15T09:50:27.569Z,100277.63
2019-02-15T09:52:54.370Z,100277.13
2019-02-15T09:55:21.091Z,100273.08
2019-02-15T09:57:48.076Z,100273.83
2019-02-15T10:00:18.397Z,100265.69
2019-02-15T10:02:45.047Z,100268.46
2019-02-15T10:05:12.135Z,100269.97
2019-02-15T10:07:40.975Z,100265.15
2019-02-15T10:10:07.691Z,100264.97
2019-02-15T10:12:34.277Z,100260.44
2019-02-15T10:15:01.004Z,100261.05
2019-02-15T10:17:27.522Z,100264.86
2019-02-15T10:19:54.232Z,100265.31
2019-02-15T10:22:20.825Z,100259.19
2019-02-15T10:24:47.457Z,100255.58
2019-02-15T10:27:14.312Z,100255.21
2019-02-15T10:29:40.891Z,100253.91
2019-02-15T10:32:07.507Z,100255.42
2019-02-15T10:34:34.157Z,100244.17
2019-02-15T10:37:00.662Z,100246.27
2019-02-15T10:39:27.227Z,100249.67
2019-02-15T10:41:53.841Z,100241.07
2019-02-15T10:44:22.521Z,100236.91
2019-02-15T10:46:49.066Z,100236.14
2019-02-15T10:49:15.617Z,100237.55
2019-02-15T10:51:42.817Z,100237.02
2019-02-15T10:54:09.367Z,100241.36
2019-02-15T10:56:35.899Z,100235.75
2019-02-15T10:59:02.654Z,100236.30
2019-02-15T11:01:29.279Z,100230.44
2019-02-15T11:03:56.012Z,100231.20
2019-02-15T11:06:22.784Z,100225.78
2019-02-15T11:08:49.414Z,100226.16
2019-02-15T11:11:16.453Z,100215.88
2019-02-15T11:13:43.234Z,100217.09
2019-02-15T11:16:09.797Z,100209.94
2019-02-15T11:18:36.467Z,100216.56
2019-02-15T11:21:12.251Z,100206.70
2019-02-15T11:23:42.176Z,100205.09
2019-02-15T11:26:08.799Z,100201.77
2019-02-15T11:28:35.423Z,100208.77
2019-02-15T11:31:02.436Z,100196.66
2019-02-15T11:33:29.651Z,100192.94
2019-02-15T11:35:56.207Z,100192.94
2019-02-15T11:38:22.850Z,100179.48
2019-02-15T11:40:49.370Z,100179.48
2019-02-15T11:43:15.918Z,100178.02
2019-02-15T11:45:42.421Z,100179.41
2019-02-15T11:48:08.953Z,100178.03
2019-02-15T11:50:35.480Z,100177.45
2019-02-15T11:53:02.275Z,100163.70
2019-02-15T11:55:30.961Z,100163.70
2019-02-15T11:57:57.567Z,100158.37
2019-02-15T12:00:30.762Z,100156.52
2019-02-15T12:02:59.246Z,100156.52
2019-02-15T12:05:25.771Z,100152.80
2019-02-15T12:07:52.306Z,100142.12
2019-02-15T12:10:18.905Z,100138.84
2019-02-15T12:12:45.434Z,100137.81
2019-02-15T12:15:12.073Z,100139.00
2019-02-15T12:17:38.604Z,100133.89
2019-02-15T12:20:30.229Z,100141.85
2019-02-15T12:22:56.762Z,100136.28
2019-02-15T12:25:23.295Z,100130.66
2019-02-15T12:27:51.865Z,100135.64
2019-02-15T12:30:18.493Z,100129.69
2019-02-15T12:32:45.035Z,100131.20
2019-02-15T12:35:11.864Z,100122.88
2019-02-15T12:37:38.616Z,100121.95
2019-02-15T12:40:05.385Z,100121.95
2019-02-15T12:42:31.889Z,100115.33
2019-02-15T12:44:58.596Z,100117.41
2019-02-15T12:47:25.085Z,100111.00
2019-02-15T12:49:51.614Z,100103.95
2019-02-15T12:52:21.630Z,100108.65
2019-02-15T12:54:48.196Z,100101.88
2019-02-15T12:57:42.932Z,100103.62
2019-02-15T13:00:11.275Z,100094.80
2019-02-15T13:02:38.120Z,100101.68
2019-02-15T13:05:05.142Z,100101.68
2019-02-15T13:07:31.794Z,100094.28
2019-02-15T13:09:58.389Z,100092.13
2019-02-15T13:12:24.863Z,100095.83
2019-02-15T13:14:51.411Z,100095.83
2019-02-15T13:17:24.454Z,100091.85
2019-02-15T13:19:46.635Z,100095.69
2019-02-15T13:22:13.905Z,100078.02
2019-02-15T13:24:40.520Z,100078.02
2019-02-15T13:27:07.385Z,100085.18
2019-02-15T13:29:33.936Z,100080.38
2019-02-15T13:32:00.730Z,100080.38
2019-02-15T13:34:27.263Z,100060.23
2019-02-15T13:36:53.820Z,100060.23
2019-02-15T13:39:20.321Z,100076.55
2019-02-15T13:41:46.891Z,100077.19
2019-02-15T13:44:13.615Z,100063.17
2019-02-15T13:46:40.406Z,100062.34
2019-02-15T13:49:06.929Z,100067.07
2019-02-15T13:51:33.477Z,100066.77
2019-02-15T13:54:00.122Z,100059.81
2019-02-15T13:56:26.642Z,100058.75
2019-02-15T13:58:53.166Z,100060.78
2019-02-15T14:01:19.868Z,100062.05
2019-02-15T14:03:46.612Z,100051.33
2019-02-15T14:06:13.476Z,100049.92
2019-02-15T14:08:40.428Z,100050.81
2019-02-15T14:11:07.116Z,100050.72
2019-02-15T14:13:33.663Z,100051.34
2019-02-15T14:16:00.213Z,100050.03
2019-02-15T14:18:27.071Z,100048.94
2019-02-15T14:20:59.806Z,100046.25
2019-02-15T14:23:30.073Z,100038.45
2019-02-15T14:26:09.017Z,100041.32
2019-02-15T14:29:02.683Z,100042.62
2019-02-15T14:31:29.500Z,100039.63
2019-02-15T14:33:56.804Z,100038.80
2019-02-15T14:36:23.943Z,100037.09
2019-02-15T14:38:50.518Z,100033.65
2019-02-15T14:41:17.174Z,100029.28
2019-02-15T14:43:43.885Z,100024.47
2019-02-15T14:46:10.623Z,100027.70
2019-02-15T14:48:37.242Z,100029.45
2019-02-15T14:51:03.796Z,100024.69
2019-02-15T14:53:30.382Z,100018.54
2019-02-15T14:55:57.064Z,100016.45
2019-02-15T14:58:24.017Z,100015.17
2019-02-15T15:00:50.711Z,100015.22
2019-02-15T15:03:17.596Z,100010.42
2019-02-15T15:05:44.197Z,100005.22
2019-02-15T15:08:14.924Z,100005.27
2019-02-15T15:10:42.392Z,100004.41
2019-02-15T15:13:09.146Z,100000.50
2019-02-15T15:15:36.323Z,99997.86
2019-02-15T15:18:13.234Z,99998.83
2019-02-15T15:20:35.662Z,99996.22
2019-02-15T15:23:02.551Z,99991.35
2019-02-15T15:25:31.207Z,99990.53
2019-02-15T15:27:58.502Z,99990.12
2019-02-15T15:30:25.109Z,99988.37
2019-02-15T15:32:51.627Z,99984.47
2019-02-15T15:35:19.365Z,99985.34
2019-02-15T15:37:46.373Z,99983.20
2019-02-15T15:40:12.980Z,99985.84
2019-02-15T15:42:39.702Z,99983.24
2019-02-15T15:45:07.474Z,99979.73
2019-02-15T15:47:34.494Z,99981.08
2019-02-15T15:50:02.059Z,99980.63
2019-02-15T15:52:28.965Z,99984.16
2019-02-15T15:54:56.573Z,99986.32
2019-02-15T15:57:29.446Z,99978.44
2019-02-15T16:00:04.896Z,99975.36
2019-02-15T16:02:37.623Z,99968.73
2019-02-15T16:05:08.334Z,99970.87
2019-02-15T16:07:35.108Z,99967.77
2019-02-15T16:10:01.955Z,99976.05
2019-02-15T16:12:32.702Z,99970.30
2019-02-15T16:15:04.222Z,99974.59
2019-02-15T16:17:33.447Z,99978.45
2019-02-15T16:20:05.935Z,99981.41
2019-02-15T16:22:36.231Z,99975.56
2019-02-15T16:25:08.562Z,99974.55
2019-02-15T16:27:49.401Z,99973.54
2019-02-15T16:30:21.506Z,99978.16
2019-02-15T16:32:57.208Z,99974.91
2019-02-15T16:35:26.577Z,99977.33
2019-02-15T16:38:02.788Z,99979.39
2019-02-15T16:40:33.208Z,99978.44
2019-02-15T16:43:05.474Z,99989.50
2019-02-15T16:45:32.624Z,99992.86
2019-02-15T16:47:59.649Z,99989.68
2019-02-15T16:50:26.178Z,99980.25
2019-02-15T16:52:55.669Z,99984.04
2019-02-15T16:55:23.246Z,99977.80
2019-02-15T16:57:49.788Z,99985.12
2019-02-15T17:00:17.831Z,99979.59
2019-02-15T17:02:45.439Z,99978.27
2019-02-15T17:05:12.570Z,99981.20
2019-02-15T17:07:43.442Z,99977.55
2019-02-15T17:10:10.560Z,99983.13
2019-02-15T17:12:37.182Z,99983.52
2019-02-15T17:15:03.893Z,99980.47
2019-02-15T17:17:30.815Z,99981.00
2019-02-15T17:19:57.663Z,99982.53
2019-02-15T17:22:25.003Z,99984.48
2019-02-15T17:24:52.230Z,99986.19
2019-02-15T17:27:25.539Z,99991.17
2019-02-15T17:29:52.877Z,99987.67
2019-02-15T17:32:21.064Z,99992.43
2019-02-15T17:34:49.157Z,99999.86
2019-02-15T17:37:17.417Z,99991.06
2019-02-15T17:39:46.890Z,99995.17
2019-02-15T17:42:14.748Z,99996.73
2019-02-15T17:44:45.909Z,99998.11
2019-02-15T17:47:17.012Z,100001.52
2019-02-15T17:49:43.886Z,100002.56
2019-02-15T17:52:13.075Z,99998.37
2019-02-15T17:54:40.473Z,99998.90
2019-02-15T17:57:09.077Z,99995.76
2019-02-15T17:59:35.750Z,99992.31
2019-02-15T18:02:02.607Z,99993.34
2019-02-15T18:04:29.269Z,99981.52
2019-02-15T18:06:57.103Z,99987.78
2019-02-15T18:09:24.507Z,99992.47
2019-02-15T18:11:52.593Z,99987.09
2019-02-15T18:14:19.930Z,99981.62
2019-02-15T18:16:49.507Z,99988.04
2019-02-15T18:19:16.866Z,99983.91
2019-02-15T18:21:44.081Z,99980.50
2019-02-15T18:24:11.973Z,99974.50
2019-02-15T18:26:38.637Z,99975.14
2019-02-15T18:29:05.520Z,99971.67
2019-02-15T18:31:32.117Z,99972.61
2019-02-15T18:33:58.890Z,99969.63
2019-02-15T18:36:26.752Z,99955.11
2019-02-15T18:38:53.610Z,99954.89
2019-02-15T18:41:20.270Z,99958.15
2019-02-15T18:43:48.038Z,99950.52
2019-02-15T18:46:14.727Z,99958.43
2019-02-15T18:48:41.376Z,99947.02
2019-02-15T18:51:09.617Z,99951.67
2019-02-15T18:53:36.088Z,99944.58
2019-02-15T18:56:02.997Z,99950.32
2019-02-15T18:58:30.875Z,99947.23
2019-02-15T19:00:58.015Z,99956.16
2019-02-15T19:03:25.387Z,99958.47
2019-02-15T19:05:52.036Z,99954.28
2019-02-15T19:08:19.075Z,99957.14
2019-02-15T19:10:49.536Z,99959.95
2019-02-15T19:13:17.455Z,99953.44
2019-02-15T19:15:44.320Z,99954.38
2019-02-15T19:18:11.514Z,99943.31
2019-02-15T19:20:38.447Z,99944.50
2019-02-15T19:23:05.225Z,99946.59
2019-02-15T19:25:38.194Z,99944.19
2019-02-15T19:28:04.797Z,99939.80
2019-02-15T19:30:31.678Z,99937.65
2019-02-15T19:32:58.433Z,99935.09
2019-02-15T19:35:26.294Z,99928.78
2019-02-15T19:37:52.859Z,99934.69
2019-02-15T19:40:19.607Z,99931.99
2019-02-15T19:42:48.065Z,99930.57
2019-02-15T19:45:43.135Z,99932.99
2019-02-15T19:48:10.202Z,99931.77
2019-02-15T19:50:37.000Z,99927.84
2019-02-15T19:53:06.285Z,99929.14
2019-02-15T19:55:33.250Z,99933.13
2019-02-15T19:57:59.939Z,99920.77
2019-02-15T20:00:26.790Z,99923.77
2019-02-15T20:03:01.084Z,99919.61
2019-02-15T20:05:27.764Z,99916.00
2019-02-15T20:07:56.451Z,99912.52
2019-02-15T20:10:23.545Z,99914.59
2019-02-15T20:12:50.685Z,99909.02
2019-02-15T20:15:17.365Z,99902.11
2019-02-15T20:17:43.927Z,99898.39
2019-02-15T20:20:12.752Z,99892.38
2019-02-15T20:22:39.354Z,99894.16
2019-02-15T20:25:07.881Z,99897.58
2019-02-15T20:27:34.699Z,99897.38
2019-02-15T20:30:03.418Z,99891.42
2019-02-15T20:32:30.258Z,99895.21
2019-02-15T20:34:56.821Z,99896.20
2019-02-15T20:37:23.660Z,99900.80
2019-02-15T20:39:50.148Z,99900.13
2019-02-15T20:42:17.342Z,99898.99
2019-02-15T20:44:44.295Z,99893.17
2019-02-15T20:47:11.170Z,99888.06
2019-02-15T20:49:38.581Z,99884.81
2019-02-15T20:52:05.290Z,99887.77
2019-02-15T20:54:32.237Z,99885.06
2019-02-15T20:57:01.576Z,99884.29
2019-02-15T20:59:35.560Z,99882.44
2019-02-15T21:02:04.316Z,99874.46
2019-02-15T21:04:30.876Z,99870.98
2019-02-15T21:07:00.128Z,99865.89
2019-02-15T21:09:31.049Z,99863.77
2019-02-15T21:11:59.026Z,99870.28
2019-02-15T21:14:27.020Z,99871.78
2019-02-15T21:16:53.992Z,99870.22
2019-02-15T21:19:21.075Z,99866.31
2019-02-15T21:21:47.746Z,99861.05
2019-02-15T21:24:22.677Z,99863.16
2019-02-15T21:26:51.673Z,99860.20
2019-02-15T21:29:20.581Z,99861.78
2019-02-15T21:31:48.286Z,99863.28
2019-02-15T21:34:14.871Z,99858.86
2019-02-15T21:36:41.402Z,99862.94
2019-02-15T21:39:08.074Z,99856.72
2019-02-15T21:41:34.577Z,99852.47
2019-02-15T21:44:01.052Z,99857.43
2019-02-15T21:46:27.548Z,99854.45
2019-02-15T21:48:54.059Z,99851.72
2019-02-15T21:51:20.585Z,99852.14
2019-02-15T21:53:47.044Z,99849.05
2019-02-15T21:56:13.595Z,99843.84
2019-02-15T21:58:40.238Z,99850.73
2019-02-15T22:01:06.817Z,99848.55
2019-02-15T22:03:33.584Z,99840.75
2019-02-15T22:06:00.046Z,99843.78
2019-02-15T22:08:26.582Z,99840.36
2019-02-15T22:10:53.066Z,99832.22
2019-02-15T22:13:19.596Z,99830.20
2019-02-15T22:15:46.130Z,99830.51
2019-02-15T22:18:12.607Z,99824.70
2019-02-15T22:20:39.139Z,99823.70
2019-02-15T22:23:05.635Z,99826.14
2019-02-15T22:25:32.171Z,99819.42
2019-02-15T22:27:58.990Z,99821.15
2019-02-15T22:30:25.557Z,99811.27
2019-02-15T22:32:52.940Z,99812.88
2019-02-15T22:35:19.420Z,99809.80
2019-02-15T22:37:45.932Z,99807.41
2019-02-15T22:40:32.476Z,99800.36
2019-02-15T22:43:01.842Z,99798.67
2019-02-15T22:45:30.042Z,99804.36
2019-02-15T22:47:56.513Z,99805.30
2019-02-15T22:50:23.023Z,99801.86
2019-02-15T22:52:49.612Z,99804.39
2019-02-15T22:55:16.086Z,99797.92
2019-02-15T22:57:42.550Z,99799.86
2019-02-15T23:00:15.373Z,99790.84
2019-02-15T23:02:41.850Z,99785.61
2019-02-15T23:05:08.334Z,99790.19
2019-02-15T23:07:34.792Z,99793.56
2019-02-15T23:10:01.261Z,99788.88
2019-02-15T23:12:27.772Z,99786.47
2019-02-15T23:14:54.236Z,99788.75
2019-02-15T23:17:20.988Z,99783.91
2019-02-15T23:19:47.771Z,99787.45
2019-02-15T23:22:14.240Z,99789.77
2019-02-15T23:24:40.747Z,99778.66
2019-02-15T23:27:07.208Z,99786.24
2019-02-15T23:29:33.729Z,99784.66
2019-02-15T23:32:00.223Z,99785.20
2019-02-15T23:34:27.030Z,99781.41
2019-02-15T23:36:53.545Z,99776.55
2019-02-15T23:39:20.285Z,99783.08
2019-02-15T23:41:46.857Z,99769.52
2019-02-15T23:44:13.361Z,99776.85
2019-02-15T23:46:39.823Z,99766.38
2019-02-15T23:49:06.326Z,99762.42
2019-02-15T23:51:33.183Z,99756.85
2019-02-15T23:53:59.682Z,99742.22
2019-02-15T23:56:26.167Z,99746.48
2019-02-15T23:58:53.151Z,99741.63
